This is the latest recevied weather packets stored in our database for station/object AE5EW. If no packets are shown the sender has not sent any weather packets the latest 10 day(s).
| Time | Temp. | Humidity | Pressure | Rain* | Wind** | Luminosity | Snow |
|---|---|---|---|---|---|---|---|
| 1787682155 | 31.67° C | 69% | 1017.2 hPa | 0 mm | - | - | - |
| 1787681850 | 31.67° C | 69% | 1017.3 hPa | 0 mm | - | - | - |
| 1787681550 | 32.78° C | 68% | 1017.1 hPa | 0 mm | - | - | - |
| 1787681245 | 32.78° C | 67% | 1017.5 hPa | 0 mm | - | - | - |
| 1787680941 | 32.78° C | 65% | 1017.4 hPa | 0 mm | - | - | - |
| 1787680640 | 32.78° C | 66% | 1017.7 hPa | 0 mm | - | - | - |
| 1787680339 | 33.33° C | 64% | 1017.6 hPa | 0 mm | - | - | - |
| 1787680038 | 32.78° C | 66% | 1017.5 hPa | 0 mm | - | - | - |
| 1787679738 | 32.22° C | 66% | 1017.6 hPa | 0 mm | - | - | - |
| 1787679432 | 32.22° C | 69% | 1017.6 hPa | 0 mm | - | - | - |
| 1787679129 | 32.22° C | 66% | 1017.7 hPa | 0 mm | - | - | - |
| 1787678828 | 32.22° C | 68% | 1017.6 hPa | 0 mm | - | - | - |
| 1787678523 | 32.22° C | 68% | 1017.8 hPa | 0 mm | - | - | - |
| 1787678223 | 32.22° C | 67% | 1017.7 hPa | 0 mm | - | - | - |
| 1787677919 | 31.11° C | 73% | 1018 hPa | 0 mm | - | - | - |
| 1787677618 | 31.11° C | 72% | 1018.1 hPa | 0 mm | - | - | - |
| 1787677318 | 31.11° C | 74% | 1018.1 hPa | 0 mm | - | - | - |
| 1787677017 | 31.67° C | 72% | 1018.2 hPa | 0 mm | - | - | - |
| 1787676713 | 31.11° C | 72% | 1018.1 hPa | 0 mm | - | - | - |
| 1787676408 | 31.11° C | 73% | 1018.3 hPa | 0 mm | - | - | - |
| 1787676104 | 31.11° C | 74% | 1018.2 hPa | 0 mm | - | - | - |
| 1787675800 | 31.11° C | 74% | 1018.2 hPa | 0 mm | - | - | - |
| 1787675496 | 30.56° C | 73% | 1018.3 hPa | 0 mm | - | - | - |
| 1787675193 | 30.56° C | 75% | 1018.3 hPa | 0 mm | - | - | - |
| 1787674889 | 30° C | 78% | 1018.4 hPa | 0 mm | - | - | - |
* Rain latest hour (hover to see other rain measurements)
** Current wind speed in m/s (hover to see current wind gust speed)